Time;durP1;ratioP1;P1;durP2;ratioP2;P2;SDS_P1;SDS_P2;PMS_P1;PMS_P2;Temp;Humidity;BMP_temperature;BMP_pressure;BME280_temperature;BME280_humidity;BME280_pressure;Samples;Min_cycle;Max_cycle;Signal;HPM_P1;HPM_P2
2023/01/06 00:00:41;;;;;;;36.38;21.92;;;22.30;83.50;;;;;;6242010;27;84010;-76
2023/01/06 00:03:43;;;;;;;35.35;21.48;;;22.30;83.50;;;;;;6242945;27;84138;-74
2023/01/06 00:06:46;;;;;;;34.50;21.05;;;22.30;83.50;;;;;;6252469;27;82830;-78
2023/01/06 00:09:48;;;;;;;36.22;20.38;;;22.30;83.50;;;;;;6243044;27;84274;-79
2023/01/06 00:12:51;;;;;;;39.17;21.38;;;22.30;83.60;;;;;;6240953;27;83958;-79
2023/01/06 00:15:54;;;;;;;35.38;20.30;;;22.30;84.00;;;;;;6242436;27;84378;-77
2023/01/06 00:18:57;;;;;;;35.83;20.05;;;22.30;83.90;;;;;;6243492;27;83063;-75
2023/01/06 00:22:00;;;;;;;33.67;19.92;;;22.20;83.80;;;;;;6252394;27;83817;-74
2023/01/06 00:25:02;;;;;;;32.47;18.95;;;22.20;83.80;;;;;;6252060;27;84127;-75
2023/01/06 00:28:04;;;;;;;34.40;19.08;;;22.20;83.80;;;;;;6254329;27;84272;-74
2023/01/06 00:31:08;;;;;;;32.80;18.30;;;22.20;83.90;;;;;;6247926;27;85312;-74
2023/01/06 00:34:11;;;;;;;32.90;18.48;;;22.20;83.90;;;;;;6242180;27;84128;-74
2023/01/06 00:37:15;;;;;;;30.40;17.55;;;22.20;83.90;;;;;;6243673;27;83936;-77
2023/01/06 00:40:17;;;;;;;33.97;18.40;;;22.20;84.00;;;;;;6244439;27;83582;-77
2023/01/06 00:43:19;;;;;;;32.22;17.60;;;22.20;84.20;;;;;;6242259;27;84249;-77
2023/01/06 00:46:21;;;;;;;30.83;16.90;;;22.10;84.40;;;;;;6241018;27;84126;-77
2023/01/06 00:49:23;;;;;;;27.60;15.02;;;22.10;84.70;;;;;;6247092;27;83215;-75
2023/01/06 00:52:27;;;;;;;22.75;14.00;;;22.10;85.50;;;;;;6246115;27;83370;-74
2023/01/06 00:55:29;;;;;;;25.00;14.85;;;22.10;84.20;;;;;;6241369;27;84116;-74
2023/01/06 00:58:31;;;;;;;30.23;15.65;;;22.10;84.60;;;;;;6246417;27;85221;-74
2023/01/06 01:01:34;;;;;;;25.33;16.23;;;22.10;85.00;;;;;;6255664;27;84609;-74
2023/01/06 01:04:36;;;;;;;26.42;14.85;;;22.10;85.30;;;;;;6250661;27;82889;-74
2023/01/06 01:07:40;;;;;;;25.60;14.75;;;22.10;85.30;;;;;;6257600;27;83321;-76
2023/01/06 01:10:42;;;;;;;26.10;14.77;;;22.10;85.50;;;;;;6249399;27;84413;-76
2023/01/06 01:13:44;;;;;;;24.02;14.30;;;22.10;85.60;;;;;;6243283;27;83994;-75
2023/01/06 01:16:47;;;;;;;25.02;14.68;;;22.10;85.70;;;;;;6257369;27;84114;-74
2023/01/06 01:19:50;;;;;;;20.75;12.93;;;22.00;85.70;;;;;;6254764;27;85186;-76
2023/01/06 01:22:54;;;;;;;25.17;14.57;;;22.10;85.80;;;;;;6248892;27;85144;-76
2023/01/06 01:25:56;;;;;;;27.50;14.82;;;22.00;85.80;;;;;;6246665;27;84268;-75
2023/01/06 01:28:58;;;;;;;21.67;13.20;;;22.00;85.80;;;;;;6257552;27;82949;-75
2023/01/06 01:32:01;;;;;;;22.38;14.13;;;22.00;85.80;;;;;;6252674;27;84190;-75
2023/01/06 01:35:03;;;;;;;22.05;13.20;;;22.00;85.90;;;;;;6255765;27;84124;-75
2023/01/06 01:38:06;;;;;;;21.52;13.10;;;22.00;85.90;;;;;;6255467;27;84455;-75
2023/01/06 01:41:13;;;;;;;21.27;13.48;;;22.00;85.90;;;;;;6254372;27;83883;-76
2023/01/06 01:44:52;;;;;;;18.95;12.93;;;22.00;85.80;;;;;;6253558;27;84207;-75
2023/01/06 01:47:59;;;;;;;20.52;12.82;;;22.00;85.90;;;;;;6254323;27;83939;-76
2023/01/06 01:51:05;;;;;;;19.77;12.45;;;22.00;85.90;;;;;;6251309;27;85065;-74
2023/01/06 01:54:13;;;;;;;22.50;12.25;;;22.00;85.90;;;;;;6250206;27;83315;-75
2023/01/06 01:57:19;;;;;;;24.67;12.95;;;22.00;85.90;;;;;;6257326;27;84136;-75
2023/01/06 02:00:21;;;;;;;19.75;13.02;;;21.90;85.90;;;;;;6264195;27;84085;-75
2023/01/06 02:03:26;;;;;;;18.08;11.85;;;22.00;86.00;;;;;;6245550;27;85340;-76
2023/01/06 02:06:29;;;;;;;17.10;11.98;;;21.90;86.10;;;;;;6242714;27;84315;-75
2023/01/06 02:09:37;;;;;;;18.10;11.63;;;22.00;86.10;;;;;;6255602;27;84187;-73
2023/01/06 02:12:40;;;;;;;19.25;11.80;;;21.90;86.10;;;;;;6251205;27;84160;-75
2023/01/06 02:15:43;;;;;;;17.67;10.95;;;21.90;86.10;;;;;;6245731;27;84059;-74
2023/01/06 02:18:55;;;;;;;16.13;10.75;;;21.90;86.00;;;;;;6256657;27;84048;-75
2023/01/06 02:22:16;;;;;;;17.77;11.05;;;21.90;86.00;;;;;;6242965;27;83036;-75
2023/01/06 02:25:46;;;;;;;14.18;11.15;;;21.90;86.10;;;;;;6256579;27;83303;-76
2023/01/06 02:29:19;;;;;;;16.13;11.45;;;21.90;86.10;;;;;;6232223;27;83901;-74
2023/01/06 02:32:37;;;;;;;15.68;11.18;;;21.90;86.10;;;;;;6234834;27;84234;-76
2023/01/06 02:36:02;;;;;;;15.55;10.40;;;21.90;86.10;;;;;;6253109;27;85428;-74
2023/01/06 02:39:18;;;;;;;14.98;10.52;;;21.90;86.10;;;;;;6249009;27;84153;-76
2023/01/06 02:42:29;;;;;;;14.50;10.13;;;21.90;86.10;;;;;;6252308;27;82956;-75
2023/01/06 02:45:40;;;;;;;14.73;10.00;;;21.90;86.20;;;;;;6256677;27;83979;-73
2023/01/06 02:48:56;;;;;;;14.15;10.30;;;21.90;86.20;;;;;;6242955;27;84412;-74
2023/01/06 02:52:03;;;;;;;16.42;10.07;;;21.80;86.10;;;;;;6244942;27;84098;-75
2023/01/06 02:55:10;;;;;;;12.88;9.63;;;21.90;86.10;;;;;;6252370;27;85488;-76
2023/01/06 02:58:17;;;;;;;12.82;9.57;;;21.90;86.20;;;;;;6252162;27;83265;-76
2023/01/06 03:01:25;;;;;;;14.52;10.10;;;21.90;86.10;;;;;;6240759;27;84139;-76
2023/01/06 03:04:33;;;;;;;12.48;9.75;;;21.90;86.10;;;;;;6250137;27;84330;-75
2023/01/06 03:07:38;;;;;;;13.50;9.27;;;21.80;86.00;;;;;;6244193;27;85362;-75
2023/01/06 03:10:43;;;;;;;12.65;8.60;;;21.80;86.90;;;;;;6248902;27;84003;-76
2023/01/06 03:13:49;;;;;;;13.88;8.68;;;21.80;85.20;;;;;;6250990;27;83980;-75
2023/01/06 03:16:52;;;;;;;11.25;8.80;;;21.80;85.00;;;;;;6252710;27;84284;-75
2023/01/06 03:19:55;;;;;;;13.13;8.85;;;21.90;85.40;;;;;;6246020;27;84022;-76
2023/01/06 03:22:57;;;;;;;12.68;8.70;;;21.80;85.50;;;;;;6257351;27;83992;-75
2023/01/06 03:25:59;;;;;;;12.57;8.80;;;21.80;85.60;;;;;;6256403;27;83294;-76
2023/01/06 03:29:05;;;;;;;11.35;8.73;;;21.80;85.60;;;;;;6234834;27;83171;-75
2023/01/06 03:32:15;;;;;;;14.50;8.57;;;21.80;85.60;;;;;;6253683;27;83952;-76
2023/01/06 03:35:41;;;;;;;11.02;8.38;;;21.80;85.70;;;;;;6255373;27;84062;-74
2023/01/06 03:38:52;;;;;;;12.38;8.32;;;21.80;85.70;;;;;;6255146;27;85401;-75
2023/01/06 03:45:39;;;;;;;11.90;8.05;;;21.80;85.70;;;;;;6255916;27;82305;-74
2023/01/06 03:48:58;;;;;;;10.85;8.27;;;21.80;85.90;;;;;;6251550;27;84143;-74
2023/01/06 03:52:08;;;;;;;11.68;8.73;;;21.80;85.80;;;;;;6253618;27;84011;-75
2023/01/06 03:55:15;;;;;;;10.95;8.45;;;21.80;85.80;;;;;;6251152;27;83917;-74
2023/01/06 03:58:19;;;;;;;9.35;7.70;;;21.80;85.90;;;;;;6243760;27;83649;-74
2023/01/06 04:01:23;;;;;;;10.68;8.18;;;21.80;85.90;;;;;;6253125;27;82543;-74
2023/01/06 04:04:25;;;;;;;10.18;7.53;;;21.70;85.90;;;;;;6238513;27;83047;-73
2023/01/06 04:07:29;;;;;;;10.63;7.72;;;21.80;85.90;;;;;;6251183;27;84096;-74
2023/01/06 04:10:31;;;;;;;9.98;7.53;;;21.80;85.90;;;;;;6252666;27;85125;-71
2023/01/06 04:13:33;;;;;;;9.32;7.65;;;21.80;86.00;;;;;;6252377;27;84099;-72
2023/01/06 04:16:35;;;;;;;10.07;7.70;;;21.70;85.90;;;;;;6261751;27;84025;-73
2023/01/06 04:19:37;;;;;;;11.45;7.80;;;21.80;85.90;;;;;;6248750;27;82890;-73
2023/01/06 04:22:41;;;;;;;10.52;7.97;;;21.80;85.90;;;;;;6249032;27;83977;-74
2023/01/06 04:25:43;;;;;;;11.90;8.00;;;21.70;85.90;;;;;;6235064;27;84004;-76
2023/01/06 04:28:45;;;;;;;9.18;7.38;;;21.70;85.80;;;;;;6257821;27;84145;-75
2023/01/06 04:31:48;;;;;;;11.10;8.02;;;21.70;85.80;;;;;;6258230;27;83363;-76
2023/01/06 04:34:50;;;;;;;10.77;7.30;;;21.70;85.80;;;;;;6257272;27;84194;-75
2023/01/06 04:37:53;;;;;;;9.75;7.43;;;21.70;85.70;;;;;;6259052;27;84116;-77
2023/01/06 04:40:56;;;;;;;9.75;7.00;;;21.70;85.70;;;;;;6259181;27;85016;-75
2023/01/06 04:43:58;;;;;;;8.77;7.30;;;21.70;85.60;;;;;;6257804;27;84109;-74
2023/01/06 04:47:00;;;;;;;9.13;7.22;;;21.70;85.60;;;;;;6239945;27;83983;-76
2023/01/06 04:50:02;;;;;;;9.02;6.85;;;21.80;85.70;;;;;;6251103;27;83078;-76
2023/01/06 04:53:06;;;;;;;7.55;6.63;;;21.80;85.60;;;;;;6260730;27;83855;-76
2023/01/06 04:56:10;;;;;;;8.32;6.60;;;21.80;85.50;;;;;;6262486;27;84157;-78
2023/01/06 04:59:12;;;;;;;9.30;6.93;;;21.80;85.40;;;;;;6261851;27;83883;-76
2023/01/06 05:02:14;;;;;;;9.88;6.55;;;21.80;85.40;;;;;;6256867;27;83601;-73
2023/01/06 05:05:17;;;;;;;8.68;6.63;;;21.80;85.30;;;;;;6250954;27;82956;-76
2023/01/06 05:08:21;;;;;;;9.43;6.95;;;21.90;85.30;;;;;;6238713;27;84123;-76
2023/01/06 05:11:25;;;;;;;8.32;6.68;;;21.90;85.30;;;;;;6243743;27;83991;-76
2023/01/06 05:14:27;;;;;;;8.68;6.70;;;21.90;85.20;;;;;;6251935;27;83941;-75
2023/01/06 05:17:29;;;;;;;8.50;6.22;;;21.90;85.10;;;;;;6260162;27;84024;-75
2023/01/06 05:20:31;;;;;;;8.02;6.32;;;21.90;85.10;;;;;;6257860;27;84152;-75
2023/01/06 05:23:36;;;;;;;6.93;5.72;;;22.00;85.10;;;;;;6258683;27;84187;-75
2023/01/06 05:26:38;;;;;;;7.10;5.82;;;22.00;85.20;;;;;;6238012;27;84025;-76
2023/01/06 05:29:41;;;;;;;7.50;6.00;;;22.00;85.10;;;;;;6244401;27;84430;-74
2023/01/06 05:32:43;;;;;;;8.10;6.05;;;22.00;85.20;;;;;;6257943;27;82224;-76
2023/01/06 05:35:45;;;;;;;7.85;6.30;;;22.00;85.10;;;;;;6249110;27;84138;-75
2023/01/06 05:38:53;;;;;;;8.35;6.05;;;22.00;85.10;;;;;;6236858;27;83948;-76
2023/01/06 05:41:55;;;;;;;7.22;5.90;;;22.00;85.10;;;;;;6248632;27;84979;-75
2023/01/06 05:44:57;;;;;;;6.85;5.38;;;22.00;85.00;;;;;;6247996;27;84063;-76
2023/01/06 05:48:01;;;;;;;7.85;6.22;;;22.00;85.00;;;;;;6250114;27;83241;-76
2023/01/06 05:51:04;;;;;;;7.53;6.25;;;22.00;85.00;;;;;;6255503;27;84254;-76
2023/01/06 05:54:09;;;;;;;7.22;5.68;;;22.10;85.10;;;;;;6260840;27;84132;-74
2023/01/06 05:57:11;;;;;;;7.35;5.78;;;22.10;85.00;;;;;;6260756;27;83969;-74
2023/01/06 06:00:15;;;;;;;8.35;5.70;;;22.00;85.00;;;;;;6261265;27;84082;-75
2023/01/06 06:03:17;;;;;;;6.95;5.28;;;22.10;85.00;;;;;;6259887;27;83464;-75
2023/01/06 06:06:20;;;;;;;7.30;5.63;;;22.00;85.00;;;;;;6238339;27;83516;-76
2023/01/06 06:09:23;;;;;;;8.50;5.20;;;22.00;85.00;;;;;;6254826;27;84042;-75
2023/01/06 06:12:25;;;;;;;5.75;4.95;;;22.10;85.00;;;;;;6256523;27;84747;-75
2023/01/06 06:15:27;;;;;;;5.97;5.00;;;22.00;84.90;;;;;;6258777;27;82940;-75
2023/01/06 06:18:29;;;;;;;7.47;5.32;;;22.10;84.90;;;;;;6257267;27;84092;-72
2023/01/06 06:21:32;;;;;;;6.03;5.13;;;22.10;84.90;;;;;;6253909;27;84003;-75
2023/01/06 06:24:35;;;;;;;5.85;5.10;;;22.10;84.90;;;;;;6251783;27;83871;-74
2023/01/06 06:27:38;;;;;;;6.82;5.30;;;22.10;84.80;;;;;;6256058;27;83756;-73
2023/01/06 06:30:40;;;;;;;6.15;4.90;;;22.10;84.90;;;;;;6240947;27;84098;-75
2023/01/06 06:33:42;;;;;;;6.13;5.40;;;22.10;84.90;;;;;;6248860;27;83313;-74
2023/01/06 06:36:44;;;;;;;5.95;4.85;;;22.10;84.80;;;;;;6246738;27;84166;-74
2023/01/06 06:39:47;;;;;;;5.90;5.05;;;22.20;84.90;;;;;;6235466;27;82969;-75
2023/01/06 06:42:52;;;;;;;5.95;5.10;;;22.10;84.80;;;;;;6239949;27;85375;-75
2023/01/06 06:45:54;;;;;;;5.38;4.55;;;22.10;84.70;;;;;;6235918;27;83991;-75
2023/01/06 06:48:56;;;;;;;5.38;4.75;;;22.20;84.70;;;;;;6257181;27;83105;-75
2023/01/06 06:51:58;;;;;;;5.82;4.75;;;22.10;84.70;;;;;;6260249;27;85148;-75
2023/01/06 06:55:02;;;;;;;5.63;4.95;;;22.20;84.60;;;;;;6259773;27;85691;-75
2023/01/06 06:58:04;;;;;;;6.30;4.75;;;22.20;84.60;;;;;;6249738;27;84600;-75
2023/01/06 07:01:06;;;;;;;5.10;4.60;;;22.20;84.50;;;;;;6255705;27;84157;-75
2023/01/06 07:04:09;;;;;;;4.90;4.35;;;22.20;84.50;;;;;;6253736;27;82261;-75
2023/01/06 07:07:11;;;;;;;4.75;4.22;;;22.20;84.50;;;;;;6243156;27;83997;-76
2023/01/06 07:10:16;;;;;;;5.13;4.60;;;22.20;84.40;;;;;;6254734;27;83995;-75
2023/01/06 07:13:18;;;;;;;4.95;4.45;;;22.20;84.40;;;;;;6253599;27;85288;-75
2023/01/06 07:16:22;;;;;;;4.82;4.32;;;22.20;84.30;;;;;;6257295;27;82933;-74
2023/01/06 07:19:24;;;;;;;6.30;4.57;;;22.20;84.40;;;;;;6246016;27;84091;-74
2023/01/06 07:22:26;;;;;;;5.00;4.50;;;22.20;84.30;;;;;;6252107;27;84205;-75
2023/01/06 07:25:29;;;;;;;4.70;3.90;;;22.20;84.20;;;;;;6243739;27;84097;-75
2023/01/06 07:28:33;;;;;;;5.65;4.00;;;22.20;84.20;;;;;;6240076;27;83918;-74
2023/01/06 07:31:35;;;;;;;4.63;4.10;;;22.20;84.10;;;;;;6239769;27;84096;-73
2023/01/06 07:34:37;;;;;;;4.82;4.30;;;22.20;84.00;;;;;;6237072;27;83341;-73
2023/01/06 07:37:39;;;;;;;4.63;4.03;;;22.20;83.90;;;;;;6245642;27;84103;-74
2023/01/06 07:40:43;;;;;;;4.93;3.95;;;22.20;83.90;;;;;;6240440;27;84078;-75
2023/01/06 07:43:45;;;;;;;4.80;4.03;;;22.20;83.90;;;;;;6245347;27;84997;-75
2023/01/06 07:46:47;;;;;;;5.30;3.80;;;22.20;83.90;;;;;;6244348;27;84128;-75
2023/01/06 07:49:49;;;;;;;4.25;3.85;;;22.10;83.90;;;;;;6242180;27;84178;-74
2023/01/06 07:52:51;;;;;;;4.47;3.95;;;22.10;83.80;;;;;;6243002;27;84131;-75
2023/01/06 07:55:55;;;;;;;4.55;3.92;;;22.10;83.80;;;;;;6241600;27;82787;-74
2023/01/06 07:58:57;;;;;;;5.47;3.72;;;22.20;84.00;;;;;;6242470;27;83859;-73
2023/01/06 08:01:59;;;;;;;4.07;3.30;;;22.10;83.90;;;;;;6237042;27;84090;-73
2023/01/06 08:05:01;;;;;;;4.45;3.70;;;22.10;83.80;;;;;;6239858;27;83235;-72
2023/01/06 08:08:04;;;;;;;5.03;3.80;;;22.20;83.90;;;;;;6236104;27;83298;-74
2023/01/06 08:11:08;;;;;;;4.10;3.70;;;22.20;83.80;;;;;;6246192;27;84113;-74
2023/01/06 08:14:11;;;;;;;4.15;3.75;;;22.10;83.80;;;;;;6242199;27;84980;-72
2023/01/06 08:17:14;;;;;;;3.72;3.25;;;22.20;83.80;;;;;;6237625;27;84246;-73
2023/01/06 08:20:16;;;;;;;4.18;3.47;;;22.20;83.80;;;;;;6235057;27;84144;-73
2023/01/06 08:23:18;;;;;;;3.83;3.42;;;22.20;83.80;;;;;;6239641;27;84295;-73
2023/01/06 08:26:22;;;;;;;3.72;3.40;;;22.20;83.80;;;;;;6236684;27;84021;-72
2023/01/06 08:29:24;;;;;;;4.00;3.22;;;22.20;83.80;;;;;;6247661;27;82965;-72
2023/01/06 08:32:26;;;;;;;4.95;3.67;;;22.20;83.80;;;;;;6245590;27;84163;-72
2023/01/06 08:35:28;;;;;;;4.13;3.45;;;22.20;83.80;;;;;;6234690;27;82820;-71
2023/01/06 08:38:31;;;;;;;5.20;3.55;;;22.20;83.70;;;;;;6248709;27;84085;-72
2023/01/06 08:41:35;;;;;;;3.97;3.42;;;22.30;83.70;;;;;;6257346;27;84045;-71
2023/01/06 08:44:37;;;;;;;3.83;3.25;;;22.30;83.70;;;;;;6243669;27;83337;-72
2023/01/06 08:47:39;;;;;;;3.95;3.20;;;22.30;83.60;;;;;;6245020;28;83715;-72
2023/01/06 08:50:42;;;;;;;5.18;3.75;;;22.40;83.60;;;;;;6262006;27;84151;-72
2023/01/06 08:53:44;;;;;;;3.50;3.20;;;22.30;83.50;;;;;;6246669;27;83917;-72
2023/01/06 08:56:47;;;;;;;3.55;3.25;;;22.30;83.50;;;;;;6241166;27;82922;-71
2023/01/06 08:59:49;;;;;;;4.05;3.40;;;22.30;83.50;;;;;;6239294;27;83993;-72
2023/01/06 09:02:52;;;;;;;3.80;3.22;;;22.30;83.50;;;;;;6244774;27;83972;-72
2023/01/06 09:05:55;;;;;;;3.47;3.17;;;22.30;83.50;;;;;;6243088;27;83068;-73
2023/01/06 09:08:58;;;;;;;3.92;3.10;;;22.40;83.70;;;;;;6246166;27;85123;-72
2023/01/06 09:12:01;;;;;;;5.22;3.60;;;22.40;83.80;;;;;;6248179;27;82977;-71
2023/01/06 09:15:05;;;;;;;4.78;3.50;;;22.40;84.50;;;;;;6251756;27;84710;-72
2023/01/06 09:18:07;;;;;;;6.38;3.60;;;22.50;84.40;;;;;;6255743;27;83445;-71
2023/01/06 09:21:10;;;;;;;5.80;3.50;;;22.40;85.40;;;;;;6246935;27;84254;-70
2023/01/06 09:24:13;;;;;;;4.78;3.53;;;22.40;85.00;;;;;;6252364;27;83005;-71
2023/01/06 09:27:17;;;;;;;6.68;3.42;;;22.40;85.00;;;;;;6259896;27;84358;-71
2023/01/06 09:30:19;;;;;;;8.93;3.90;;;22.50;85.40;;;;;;6245018;27;84091;-74
2023/01/06 09:33:21;;;;;;;15.38;3.90;;;22.50;85.80;;;;;;6251734;27;81988;-74
2023/01/06 09:36:23;;;;;;;7.85;3.97;;;22.50;86.20;;;;;;6253812;27;83509;-71
2023/01/06 09:39:26;;;;;;;7.70;3.83;;;22.50;86.20;;;;;;6257960;27;84128;-74
2023/01/06 09:42:47;;;;;;;8.13;3.97;;;22.50;86.10;;;;;;6246052;27;82962;-75
2023/01/06 09:45:53;;;;;;;5.85;3.60;;;22.50;86.10;;;;;;6242224;27;85054;-73
2023/01/06 09:49:03;;;;;;;9.18;3.95;;;22.60;86.10;;;;;;6250878;27;82934;-73
2023/01/06 09:52:16;;;;;;;6.32;3.58;;;22.60;86.20;;;;;;6247219;27;83244;-73
2023/01/06 09:55:26;;;;;;;5.95;3.28;;;22.60;86.10;;;;;;6247983;27;82345;-72
2023/01/06 09:58:36;;;;;;;6.85;3.80;;;22.60;86.00;;;;;;6253832;27;82982;-72
2023/01/06 10:01:45;;;;;;;5.15;3.63;;;22.60;85.90;;;;;;6247702;27;83100;-72
2023/01/06 10:04:47;;;;;;;4.45;3.58;;;22.60;85.90;;;;;;6252664;27;84127;-72
2023/01/06 10:07:56;;;;;;;5.78;3.30;;;22.60;85.90;;;;;;6247976;27;83127;-73
2023/01/06 10:11:11;;;;;;;6.60;3.42;;;22.60;85.80;;;;;;6245587;27;84110;-72
2023/01/06 10:14:24;;;;;;;6.97;3.45;;;22.60;85.80;;;;;;6242088;27;83828;-71
2023/01/06 10:17:46;;;;;;;5.60;3.40;;;22.60;85.70;;;;;;6237295;27;84851;-72
2023/01/06 10:21:06;;;;;;;5.43;3.28;;;22.70;85.90;;;;;;6239979;27;84104;-72
2023/01/06 10:24:33;;;;;;;5.90;3.67;;;22.70;85.80;;;;;;6243925;27;84142;-73
2023/01/06 10:27:39;;;;;;;4.50;3.40;;;22.70;85.80;;;;;;6239257;27;82983;-73
2023/01/06 10:30:47;;;;;;;5.60;3.40;;;22.70;85.70;;;;;;6240537;27;83971;-73
2023/01/06 10:33:53;;;;;;;4.85;3.15;;;22.70;85.70;;;;;;6243435;27;84045;-72
2023/01/06 10:37:01;;;;;;;6.97;3.20;;;22.70;85.70;;;;;;6243466;27;84196;-73
2023/01/06 10:40:15;;;;;;;5.47;3.15;;;22.70;85.70;;;;;;6247261;27;82559;-73
2023/01/06 10:43:21;;;;;;;5.88;3.20;;;22.70;85.80;;;;;;6240221;27;83085;-74
2023/01/06 10:46:30;;;;;;;4.75;3.10;;;22.80;85.90;;;;;;6252009;27;83285;-71
2023/01/06 10:49:32;;;;;;;4.95;3.10;;;22.80;85.90;;;;;;6248759;27;85019;-74
2023/01/06 10:52:35;;;;;;;6.25;3.30;;;22.80;85.30;;;;;;6255732;27;82931;-73
2023/01/06 10:55:46;;;;;;;6.18;3.20;;;22.80;85.20;;;;;;6254401;27;84397;-73
2023/01/06 10:58:53;;;;;;;4.53;3.33;;;22.80;85.60;;;;;;6242333;27;84032;-72
2023/01/06 11:01:57;;;;;;;5.43;2.85;;;22.80;86.10;;;;;;6248784;27;84505;-72
2023/01/06 11:05:01;;;;;;;10.43;3.90;;;22.80;86.40;;;;;;6240857;27;82911;-73
2023/01/06 11:08:07;;;;;;;7.78;3.67;;;22.80;86.20;;;;;;6253135;27;83861;-73
2023/01/06 11:11:11;;;;;;;7.72;2.80;;;22.80;87.10;;;;;;6252581;27;83274;-73
2023/01/06 11:14:17;;;;;;;5.45;2.65;;;22.80;86.10;;;;;;6247138;27;82909;-72
2023/01/06 11:17:21;;;;;;;6.10;2.78;;;22.70;85.10;;;;;;6254657;27;84470;-71
2023/01/06 11:20:30;;;;;;;4.43;2.75;;;22.70;85.90;;;;;;6249160;27;84914;-74
2023/01/06 11:23:32;;;;;;;8.82;2.90;;;22.70;86.60;;;;;;6241617;27;83895;-72
2023/01/06 11:26:44;;;;;;;9.15;2.92;;;22.80;87.30;;;;;;6248629;27;84560;-72
2023/01/06 11:29:47;;;;;;;6.30;2.88;;;22.70;88.10;;;;;;6241136;27;83029;-73
2023/01/06 11:32:50;;;;;;;9.77;2.95;;;22.80;88.20;;;;;;6245992;27;83841;-74
2023/01/06 11:35:53;;;;;;;5.50;2.80;;;22.70;88.20;;;;;;6242080;27;82641;-72
2023/01/06 11:38:58;;;;;;;12.18;3.30;;;22.80;88.30;;;;;;6250381;27;82939;-73
2023/01/06 11:42:12;;;;;;;7.05;2.78;;;22.80;88.30;;;;;;6250381;27;82071;-72
2023/01/06 11:45:31;;;;;;;5.55;2.67;;;22.80;89.00;;;;;;6249649;27;82721;-71
2023/01/06 11:48:37;;;;;;;5.75;2.60;;;22.80;89.70;;;;;;6250966;27;84270;-73
2023/01/06 11:51:48;;;;;;;4.38;2.63;;;22.90;90.30;;;;;;6248745;27;84873;-72
2023/01/06 11:55:01;;;;;;;4.03;2.55;;;22.90;90.30;;;;;;6246807;27;82987;-73
2023/01/06 11:58:10;;;;;;;6.43;2.90;;;23.00;90.30;;;;;;6234527;28;82810;-72
2023/01/06 12:01:16;;;;;;;6.10;2.58;;;22.90;89.60;;;;;;6248610;27;84104;-72
2023/01/06 12:04:30;;;;;;;5.40;2.45;;;22.90;89.40;;;;;;6243569;27;84355;-73
2023/01/06 12:07:38;;;;;;;6.32;2.83;;;22.90;89.40;;;;;;6247203;27;82990;-71
2023/01/06 12:10:43;;;;;;;10.32;3.08;;;22.90;89.00;;;;;;6252465;27;84107;-73
2023/01/06 12:13:45;;;;;;;5.10;2.80;;;22.90;88.60;;;;;;6245648;27;83231;-72
2023/01/06 12:16:56;;;;;;;5.75;2.72;;;22.90;88.00;;;;;;6252135;27;83981;-72
2023/01/06 12:20:06;;;;;;;5.35;2.80;;;22.90;87.40;;;;;;6243356;27;84049;-72
2023/01/06 12:23:12;;;;;;;3.95;2.60;;;22.90;87.10;;;;;;6252228;27;84991;-71
2023/01/06 12:26:19;;;;;;;4.43;2.47;;;22.90;87.20;;;;;;6269498;27;82940;-73
2023/01/06 12:29:22;;;;;;;4.43;2.70;;;22.90;86.90;;;;;;6256652;27;84208;-72
2023/01/06 12:32:28;;;;;;;4.65;2.70;;;22.90;86.50;;;;;;6268313;27;82961;-72
2023/01/06 12:35:36;;;;;;;4.80;3.08;;;22.90;86.50;;;;;;6260846;27;83961;-72
2023/01/06 12:38:49;;;;;;;5.85;3.15;;;22.90;86.20;;;;;;6255276;27;84131;-73
2023/01/06 12:41:55;;;;;;;3.33;2.88;;;22.90;85.70;;;;;;6246583;27;82776;-72
2023/01/06 12:45:03;;;;;;;4.15;2.80;;;22.80;85.00;;;;;;6250194;27;82520;-72
2023/01/06 12:48:17;;;;;;;3.00;2.70;;;22.80;84.50;;;;;;6248194;27;84154;-72
2023/01/06 12:51:27;;;;;;;4.80;2.70;;;22.80;83.80;;;;;;6260618;27;83941;-72
2023/01/06 12:54:32;;;;;;;5.15;2.92;;;22.80;83.30;;;;;;6254517;27;84746;-73
2023/01/06 12:57:54;;;;;;;3.28;2.70;;;22.80;82.70;;;;;;6243239;27;84186;-72
2023/01/06 13:01:01;;;;;;;2.97;2.50;;;22.80;82.30;;;;;;6250896;27;83678;-73
2023/01/06 13:04:23;;;;;;;2.70;2.50;;;22.80;82.00;;;;;;6243550;27;84070;-72
2023/01/06 13:07:39;;;;;;;3.33;2.90;;;22.80;81.80;;;;;;6253915;27;83956;-73
2023/01/06 13:10:47;;;;;;;3.28;2.92;;;22.80;81.50;;;;;;6259542;27;84005;-72
2023/01/06 13:13:58;;;;;;;3.72;3.35;;;22.80;81.10;;;;;;6260958;27;84015;-72
2023/01/06 13:17:07;;;;;;;3.80;3.42;;;22.80;81.00;;;;;;6249350;27;83236;-72
2023/01/06 13:20:18;;;;;;;3.72;3.42;;;22.70;80.70;;;;;;6259676;27;83125;-72
2023/01/06 13:23:45;;;;;;;3.10;2.90;;;22.70;80.50;;;;;;6265019;27;84428;-73
2023/01/06 13:27:05;;;;;;;3.33;2.95;;;22.70;80.20;;;;;;6237301;27;85023;-73
2023/01/06 13:30:27;;;;;;;5.47;4.97;;;22.70;80.10;;;;;;6250210;27;82970;-73
2023/01/06 13:33:47;;;;;;;10.57;9.57;;;22.80;80.00;;;;;;6251145;27;82940;-72
2023/01/06 13:37:05;;;;;;;8.95;8.10;;;22.70;79.80;;;;;;6258845;27;84087;-72
2023/01/06 13:40:13;;;;;;;6.70;6.20;;;22.70;79.60;;;;;;6258443;27;84442;-72
2023/01/06 13:43:20;;;;;;;6.43;5.90;;;22.70;79.60;;;;;;6267004;27;82767;-73
2023/01/06 13:46:25;;;;;;;5.60;5.20;;;22.70;79.40;;;;;;6259014;27;84196;-73
2023/01/06 13:49:27;;;;;;;5.32;4.85;;;22.70;79.30;;;;;;6242711;27;83346;-72
2023/01/06 13:52:31;;;;;;;4.90;4.50;;;22.70;79.20;;;;;;6259455;27;84185;-73
2023/01/06 13:55:37;;;;;;;5.20;4.70;;;22.70;79.10;;;;;;6258941;27;82950;-72
2023/01/06 13:58:41;;;;;;;5.30;4.90;;;22.70;78.90;;;;;;6258671;27;83829;-73
2023/01/06 14:01:43;;;;;;;5.03;4.63;;;22.70;78.90;;;;;;6260845;27;84058;-73
2023/01/06 14:04:48;;;;;;;4.40;4.10;;;22.70;78.80;;;;;;6248336;27;83209;-73
2023/01/06 14:07:53;;;;;;;4.43;4.03;;;22.70;78.60;;;;;;6249818;27;83848;-72
2023/01/06 14:11:03;;;;;;;4.45;4.10;;;22.70;78.60;;;;;;6246971;27;83300;-72
2023/01/06 14:14:08;;;;;;;4.75;4.35;;;22.60;78.40;;;;;;6246621;27;84028;-73
2023/01/06 14:17:29;;;;;;;4.70;4.28;;;22.70;78.40;;;;;;6259574;27;84066;-72
2023/01/06 14:20:34;;;;;;;4.90;4.50;;;22.60;78.30;;;;;;6238961;27;83469;-73
2023/01/06 14:23:36;;;;;;;4.53;4.15;;;22.60;78.30;;;;;;6260610;27;84041;-73
2023/01/06 14:26:49;;;;;;;5.10;4.22;;;22.60;78.40;;;;;;6252981;27;84159;-73
2023/01/06 14:30:19;;;;;;;4.90;4.40;;;22.60;78.40;;;;;;6257632;27;85080;-72
2023/01/06 14:33:35;;;;;;;5.07;4.57;;;22.60;78.40;;;;;;6256307;27;84080;-73
2023/01/06 14:36:37;;;;;;;4.88;4.38;;;22.60;78.30;;;;;;6248429;27;84295;-71
2023/01/06 14:39:41;;;;;;;4.93;4.50;;;22.60;78.40;;;;;;6255489;27;83251;-73
2023/01/06 14:42:46;;;;;;;4.65;4.25;;;22.60;78.20;;;;;;6250602;27;84178;-73
2023/01/06 14:45:49;;;;;;;4.85;4.22;;;22.60;78.10;;;;;;6246699;27;83008;-74
2023/01/06 14:48:57;;;;;;;4.55;4.10;;;22.60;78.70;;;;;;6254767;27;84071;-72
2023/01/06 14:52:06;;;;;;;4.30;3.90;;;22.70;79.00;;;;;;6253844;27;83224;-75
2023/01/06 14:55:11;;;;;;;4.45;3.80;;;22.70;79.10;;;;;;6239647;27;84120;-73
2023/01/06 14:58:29;;;;;;;4.20;3.80;;;22.60;79.10;;;;;;6251257;27;84147;-74
2023/01/06 15:01:35;;;;;;;4.47;4.07;;;22.70;78.90;;;;;;6246916;27;85417;-73
2023/01/06 15:04:37;;;;;;;4.55;4.13;;;22.60;78.50;;;;;;6247916;27;84098;-73
2023/01/06 15:07:39;;;;;;;4.43;4.03;;;22.60;78.10;;;;;;6249218;27;82925;-74
2023/01/06 15:10:43;;;;;;;4.95;4.40;;;22.60;77.80;;;;;;6245865;27;82954;-73
2023/01/06 15:13:47;;;;;;;4.85;4.45;;;22.60;77.40;;;;;;6246057;27;83171;-75
2023/01/06 15:16:49;;;;;;;4.90;4.50;;;22.60;77.20;;;;;;6250472;27;84205;-73
2023/01/06 15:19:53;;;;;;;4.43;4.03;;;22.60;77.10;;;;;;6244471;27;89368;-73
2023/01/06 15:22:55;;;;;;;4.25;3.95;;;22.60;77.00;;;;;;6250246;27;88394;-74
2023/01/06 15:25:57;;;;;;;4.70;4.30;;;22.60;76.70;;;;;;6242114;27;89105;-74
2023/01/06 15:29:03;;;;;;;3.97;3.67;;;22.60;76.60;;;;;;6247987;27;88283;-74
2023/01/06 15:32:11;;;;;;;4.63;4.22;;;22.60;76.40;;;;;;6237215;27;89965;-75
2023/01/06 15:35:19;;;;;;;4.18;3.88;;;22.60;76.20;;;;;;6241720;27;87869;-73
2023/01/06 15:38:26;;;;;;;4.30;3.88;;;22.60;76.00;;;;;;6243679;27;88928;-74
2023/01/06 15:41:32;;;;;;;4.80;4.40;;;22.50;75.80;;;;;;6253031;27;88823;-74
2023/01/06 15:44:36;;;;;;;4.47;4.07;;;22.50;75.60;;;;;;6239674;27;88745;-74
2023/01/06 15:47:44;;;;;;;4.35;4.05;;;22.50;75.40;;;;;;6247743;27;89086;-75
2023/01/06 15:50:46;;;;;;;5.18;4.78;;;22.50;75.40;;;;;;6239123;27;89935;-74
2023/01/06 15:53:55;;;;;;;5.70;5.30;;;22.50;75.10;;;;;;6244033;27;88252;-75
2023/01/06 15:56:58;;;;;;;6.15;5.57;;;22.50;75.00;;;;;;6237155;27;89063;-75
2023/01/06 16:00:05;;;;;;;6.10;5.60;;;22.50;75.10;;;;;;6233464;27;89088;-74
2023/01/06 16:03:14;;;;;;;6.15;5.75;;;22.50;75.00;;;;;;6235400;27;90863;-76
2023/01/06 16:06:26;;;;;;;6.25;5.68;;;22.60;75.00;;;;;;6240201;27;90212;-74